createdAt,value
2018-06-17T00:03:18.639Z,74.65
2018-06-17T00:08:21.127Z,74.45
2018-06-17T00:13:23.484Z,75.16
2018-06-17T00:18:25.833Z,74.40
2018-06-17T00:23:28.196Z,74.65
2018-06-17T00:28:30.541Z,74.28
2018-06-17T00:33:33.347Z,74.50
2018-06-17T00:38:35.699Z,74.71
2018-06-17T00:43:38.486Z,74.71
2018-06-17T00:48:40.856Z,74.79
2018-06-17T00:53:43.192Z,75.46
2018-06-17T00:58:45.600Z,75.60
2018-06-17T01:10:00.155Z,77.19
2018-06-17T01:20:41.981Z,76.81
2018-06-17T06:59:11.468Z,63.30
2018-06-17T09:17:38.361Z,59.04
2018-06-17T12:09:35.777Z,57.92
2018-06-17T12:14:38.010Z,53.07
2018-06-17T12:19:40.219Z,54.96
2018-06-17T12:24:42.982Z,54.78
2018-06-17T12:29:45.191Z,54.30
2018-06-17T12:34:47.368Z,55.97
2018-06-17T12:39:49.532Z,57.81
2018-06-17T12:44:51.708Z,60.16
2018-06-17T12:49:53.960Z,63.52
2018-06-17T12:54:56.171Z,66.51
2018-06-17T12:59:58.346Z,68.34
2018-06-17T13:05:00.576Z,67.81
2018-06-17T13:10:02.779Z,67.79
2018-06-17T13:15:04.951Z,67.27
2018-06-17T13:20:07.212Z,66.63
2018-06-17T13:25:09.379Z,66.91
2018-06-17T13:30:11.593Z,67.38
2018-06-17T13:35:13.828Z,66.46
2018-06-17T13:40:16.038Z,64.96
2018-06-17T13:45:18.511Z,64.24
2018-06-17T13:50:20.743Z,64.70
2018-06-17T13:55:22.977Z,63.97
2018-06-17T14:00:25.233Z,61.15
2018-06-17T14:05:27.524Z,57.24
2018-06-17T14:10:29.751Z,54.96
2018-06-17T14:15:32.248Z,51.68
2018-06-17T14:20:34.511Z,51.70
2018-06-17T14:25:36.734Z,48.68
2018-06-17T14:30:38.948Z,49.38
2018-06-17T14:35:41.143Z,50.40
2018-06-17T14:40:49.033Z,49.88
2018-06-17T14:45:56.315Z,48.20
2018-06-17T14:51:04.158Z,46.94
2018-06-17T14:56:06.326Z,47.51
2018-06-17T15:01:08.644Z,46.88
2018-06-17T15:06:10.853Z,46.92
2018-06-17T15:11:13.413Z,44.49
2018-06-17T15:16:15.560Z,46.14
2018-06-17T15:21:17.774Z,46.76
2018-06-17T15:26:20.038Z,46.07
2018-06-17T15:31:27.921Z,44.40
2018-06-17T15:36:35.858Z,47.13
2018-06-17T15:41:38.054Z,46.23
2018-06-17T15:46:40.222Z,45.59
2018-06-17T15:51:42.395Z,43.00
2018-06-17T15:56:44.566Z,44.83
2018-06-17T16:01:46.741Z,45.89
2018-06-17T16:06:48.955Z,44.42
2018-06-17T16:11:56.824Z,42.63
2018-06-17T16:17:04.808Z,46.59
2018-06-17T16:22:07.014Z,45.65
2018-06-17T16:27:09.214Z,45.71
2018-06-17T16:32:11.411Z,47.92
2018-06-17T16:37:13.559Z,48.93
2018-06-17T16:42:15.716Z,49.15
2018-06-17T16:47:17.906Z,45.41
2018-06-17T16:52:25.691Z,46.31
2018-06-17T16:57:33.544Z,48.39
2018-06-17T17:02:35.747Z,47.42
2018-06-17T17:07:37.966Z,45.20
2018-06-17T17:12:40.204Z,46.70
2018-06-17T17:17:42.355Z,46.86
2018-06-17T17:22:44.487Z,47.79
2018-06-17T17:27:46.671Z,47.90
2018-06-17T17:32:54.471Z,48.83
2018-06-17T17:38:02.415Z,45.78
2018-06-17T17:43:04.642Z,47.32
2018-06-17T17:48:06.826Z,48.69
2018-06-17T17:53:09.010Z,46.67
2018-06-17T17:58:11.228Z,47.24
2018-06-17T18:03:13.376Z,47.95
2018-06-17T18:08:16.347Z,49.12
2018-06-17T18:13:18.599Z,49.14
2018-06-17T18:18:20.786Z,48.86
2018-06-17T18:23:23.022Z,48.80
2018-06-17T18:28:30.960Z,48.95
2018-06-17T18:33:38.851Z,49.57
2018-06-17T18:38:45.436Z,48.87
2018-06-17T18:43:47.650Z,50.56
2018-06-17T18:48:49.916Z,50.79
2018-06-17T18:53:52.133Z,49.84
2018-06-17T18:58:54.342Z,49.79
2018-06-17T19:03:56.580Z,49.46
2018-06-17T19:09:04.600Z,50.33
2018-06-17T19:14:12.403Z,49.95
2018-06-17T19:19:14.629Z,51.26
2018-06-17T19:24:17.002Z,50.25
2018-06-17T19:29:19.214Z,49.31
2018-06-17T19:34:21.414Z,50.78
2018-06-17T19:39:23.582Z,50.92
2018-06-17T19:44:25.896Z,50.58
2018-06-17T19:49:33.995Z,50.82
2018-06-17T19:54:41.968Z,51.06
2018-06-17T19:59:49.765Z,50.88
2018-06-17T20:04:51.893Z,50.75
2018-06-17T20:09:54.151Z,51.43
2018-06-17T20:14:57.269Z,51.13
2018-06-17T20:19:59.457Z,51.82
2018-06-17T20:25:02.061Z,51.98
2018-06-17T20:30:05.879Z,52.09
2018-06-17T20:35:13.874Z,52.60
2018-06-17T20:40:21.771Z,52.39
2018-06-17T20:45:23.970Z,52.46
2018-06-17T20:50:26.184Z,52.56
2018-06-17T20:55:28.445Z,50.96
2018-06-17T21:00:30.702Z,53.29
2018-06-17T21:05:32.856Z,55.11
2018-06-17T21:10:35.105Z,56.60
2018-06-17T21:15:37.293Z,57.25
2018-06-17T21:20:45.144Z,58.43
2018-06-17T21:25:53.035Z,58.50
2018-06-17T21:30:55.243Z,59.97
2018-06-17T21:35:57.428Z,59.48
2018-06-17T21:40:59.641Z,59.81
2018-06-17T21:46:01.836Z,59.97
2018-06-17T21:51:04.133Z,60.68
2018-06-17T21:56:06.331Z,60.81
2018-06-17T22:01:08.487Z,61.20
2018-06-17T22:06:10.715Z,60.70
2018-06-17T22:11:18.666Z,61.60
2018-06-17T22:16:26.581Z,62.19
2018-06-17T22:21:28.815Z,62.65
2018-06-17T22:26:31.145Z,62.99
2018-06-17T22:31:33.333Z,63.84
2018-06-17T22:36:35.492Z,63.69
2018-06-17T22:41:38.356Z,63.79
2018-06-17T22:46:40.558Z,64.00
2018-06-17T22:51:42.706Z,64.19
2018-06-17T22:56:51.598Z,65.40
2018-06-17T23:01:59.583Z,64.53
2018-06-17T23:07:07.489Z,64.78
2018-06-17T23:12:09.688Z,65.86
2018-06-17T23:17:11.873Z,64.97
2018-06-17T23:22:14.087Z,64.85
2018-06-17T23:27:16.262Z,64.14
2018-06-17T23:32:18.596Z,65.01
2018-06-17T23:37:20.740Z,64.93
2018-06-17T23:42:22.952Z,64.49
2018-06-17T23:47:30.658Z,64.84
2018-06-17T23:52:39.017Z,64.20
2018-06-17T23:57:41.158Z,65.44
